createdAt,value
2023-03-27T00:00:18.764Z,1006.21
2023-03-27T00:01:18.737Z,1006.24
2023-03-27T00:02:18.890Z,1006.24
2023-03-27T00:03:18.872Z,1006.29
2023-03-27T00:04:18.868Z,1006.28
2023-03-27T00:05:18.688Z,1006.28
2023-03-27T00:06:18.674Z,1006.28
2023-03-27T00:07:18.689Z,1006.27
2023-03-27T00:08:18.702Z,1006.27
2023-03-27T00:09:18.642Z,1006.30
2023-03-27T00:10:18.633Z,1006.40
2023-03-27T00:11:18.634Z,1006.39
2023-03-27T00:12:18.613Z,1006.40
2023-03-27T00:13:18.599Z,1006.41
2023-03-27T00:14:18.615Z,1006.41
2023-03-27T00:15:18.577Z,1006.45
2023-03-27T00:16:18.627Z,1006.44
2023-03-27T00:17:18.553Z,1006.45
2023-03-27T00:18:18.563Z,1006.53
2023-03-27T00:19:18.535Z,1006.64
2023-03-27T00:20:18.538Z,1006.58
2023-03-27T00:21:18.515Z,1006.57
2023-03-27T00:22:18.505Z,1006.51
2023-03-27T00:23:18.488Z,1006.53
2023-03-27T00:24:18.487Z,1006.59
2023-03-27T00:25:18.469Z,1006.62
2023-03-27T00:26:18.454Z,1006.57
2023-03-27T00:27:18.465Z,1006.63
2023-03-27T00:28:18.429Z,1006.61
2023-03-27T00:29:18.440Z,1006.63
2023-03-27T00:30:18.413Z,1006.64
2023-03-27T00:31:18.470Z,1006.65
2023-03-27T00:32:18.387Z,1006.60
2023-03-27T00:33:18.402Z,1006.72
2023-03-27T00:34:18.424Z,1006.70
2023-03-27T00:35:18.405Z,1006.70
2023-03-27T00:36:18.341Z,1006.79
2023-03-27T00:37:18.332Z,1006.80
2023-03-27T00:38:18.319Z,1006.80
2023-03-27T00:39:18.311Z,1006.79
2023-03-27T00:40:18.308Z,1006.69
2023-03-27T00:41:18.320Z,1006.75
2023-03-27T00:42:18.275Z,1006.82
2023-03-27T00:43:18.270Z,1006.75
2023-03-27T00:44:18.261Z,1006.84
2023-03-27T00:45:18.270Z,1006.80
2023-03-27T00:46:18.258Z,1006.78
2023-03-27T00:47:18.234Z,1006.89
2023-03-27T00:48:18.211Z,1006.88
2023-03-27T00:49:18.200Z,1006.91
2023-03-27T00:50:18.227Z,1006.91
2023-03-27T00:51:18.178Z,1006.90
2023-03-27T00:52:18.166Z,1006.86
2023-03-27T00:53:18.171Z,1006.84
2023-03-27T00:54:18.144Z,1006.95
2023-03-27T00:55:18.143Z,1006.96
2023-03-27T00:56:18.164Z,1006.91
2023-03-27T00:57:18.129Z,1006.93
2023-03-27T00:58:18.102Z,1006.96
2023-03-27T00:59:18.089Z,1006.99
2023-03-27T01:00:18.081Z,1007.02
2023-03-27T01:01:18.128Z,1007.03
2023-03-27T01:02:18.141Z,1007.06
2023-03-27T01:03:18.202Z,1007.11
2023-03-27T01:04:18.030Z,1007.08
2023-03-27T01:05:18.116Z,1007.10
2023-03-27T01:06:18.039Z,1007.16
2023-03-27T01:07:18.010Z,1007.03
2023-03-27T01:08:17.999Z,1007.08
2023-03-27T01:09:20.341Z,1007.10
2023-03-27T01:10:17.965Z,1007.13
2023-03-27T01:11:17.956Z,1007.10
2023-03-27T01:12:17.947Z,1007.08
2023-03-27T01:13:17.933Z,1007.19
2023-03-27T01:14:17.918Z,1007.17
2023-03-27T01:15:17.924Z,1007.17
2023-03-27T01:16:17.938Z,1007.19
2023-03-27T01:17:17.907Z,1007.20
2023-03-27T01:18:17.877Z,1007.27
2023-03-27T01:19:17.864Z,1007.26
2023-03-27T01:20:17.857Z,1007.24
2023-03-27T01:21:17.855Z,1007.25
2023-03-27T01:22:17.858Z,1007.26
2023-03-27T01:23:36.223Z,1007.25
2023-03-27T01:24:18.813Z,1007.26
2023-03-27T01:25:17.798Z,1007.31
2023-03-27T01:26:17.793Z,1007.30
2023-03-27T01:27:18.786Z,1007.29
2023-03-27T01:28:24.889Z,1007.33
2023-03-27T01:29:17.747Z,1007.34
2023-03-27T01:30:17.741Z,1007.33
2023-03-27T01:31:17.764Z,1007.34
2023-03-27T01:32:17.742Z,1007.33
2023-03-27T01:33:17.721Z,1007.35
2023-03-27T01:34:17.716Z,1007.33
2023-03-27T01:35:17.841Z,1007.29
2023-03-27T01:36:17.680Z,1007.36
2023-03-27T01:37:17.668Z,1007.36
2023-03-27T01:38:17.697Z,1007.45
2023-03-27T01:39:17.682Z,1007.39
2023-03-27T01:40:17.633Z,1007.46
2023-03-27T01:41:17.634Z,1007.44
2023-03-27T01:42:17.634Z,1007.42
2023-03-27T01:43:17.596Z,1007.44
2023-03-27T01:44:17.592Z,1007.42
2023-03-27T01:45:17.578Z,1007.46
2023-03-27T01:46:17.611Z,1007.52
2023-03-27T01:47:17.561Z,1007.44
2023-03-27T01:48:17.563Z,1007.44
2023-03-27T01:49:17.539Z,1007.44
2023-03-27T01:50:17.526Z,1007.43
2023-03-27T01:51:17.519Z,1007.44
2023-03-27T01:52:17.517Z,1007.42
2023-03-27T01:53:17.503Z,1007.47
2023-03-27T01:54:17.519Z,1007.53
2023-03-27T01:55:17.471Z,1007.54
2023-03-27T01:56:17.455Z,1007.57
2023-03-27T01:57:17.484Z,1007.57
2023-03-27T01:58:17.439Z,1007.60
2023-03-27T01:59:17.428Z,1007.54
2023-03-27T02:00:19.474Z,1007.62
2023-03-27T02:01:17.442Z,1007.58
2023-03-27T02:02:17.408Z,1007.66
2023-03-27T02:03:17.379Z,1007.70
2023-03-27T02:04:17.378Z,1007.68
2023-03-27T02:05:17.392Z,1007.68
2023-03-27T02:06:17.344Z,1007.67
2023-03-27T02:07:17.337Z,1007.67
2023-03-27T02:08:17.332Z,1007.59
2023-03-27T02:09:17.335Z,1007.66
2023-03-27T02:10:17.328Z,1007.69
2023-03-27T02:11:17.296Z,1007.66
2023-03-27T02:12:17.287Z,1007.70
2023-03-27T02:13:17.285Z,1007.75
2023-03-27T02:14:17.262Z,1007.74
2023-03-27T02:15:23.723Z,1007.78
2023-03-27T02:16:18.277Z,1007.75
2023-03-27T02:17:17.223Z,1007.73
2023-03-27T02:18:17.230Z,1007.81
2023-03-27T02:19:17.199Z,1007.81
2023-03-27T02:20:17.201Z,1007.85
2023-03-27T02:21:17.177Z,1007.81
2023-03-27T02:22:17.180Z,1007.87
2023-03-27T02:23:17.192Z,1007.79
2023-03-27T02:24:17.149Z,1007.87
2023-03-27T02:25:17.141Z,1007.83
2023-03-27T02:26:17.149Z,1007.87
2023-03-27T02:27:17.125Z,1007.97
2023-03-27T02:28:17.118Z,1007.97
2023-03-27T02:29:17.107Z,1007.97
2023-03-27T02:30:17.085Z,1007.98
2023-03-27T02:31:32.522Z,1007.96
2023-03-27T02:32:17.112Z,1007.99
2023-03-27T02:33:17.060Z,1007.96
2023-03-27T02:34:17.043Z,1008.05
2023-03-27T02:35:17.040Z,1008.05
2023-03-27T02:36:17.020Z,1008.00
2023-03-27T02:37:17.011Z,1008.05
2023-03-27T02:38:16.991Z,1008.07
2023-03-27T02:39:16.986Z,1008.08
2023-03-27T02:40:16.981Z,1008.08
2023-03-27T02:41:16.987Z,1008.11
2023-03-27T02:42:16.972Z,1008.13
2023-03-27T02:43:16.942Z,1008.07
2023-03-27T02:44:16.927Z,1008.13
2023-03-27T02:45:16.916Z,1008.12
2023-03-27T02:46:16.973Z,1008.12
2023-03-27T02:47:16.940Z,1008.19
2023-03-27T02:48:16.890Z,1008.17
2023-03-27T02:49:16.867Z,1008.24
2023-03-27T02:50:16.878Z,1008.22
2023-03-27T02:51:16.853Z,1008.27
2023-03-27T02:52:16.838Z,1008.23
2023-03-27T02:53:16.847Z,1008.32
2023-03-27T02:54:16.833Z,1008.24
2023-03-27T02:55:16.828Z,1008.25
2023-03-27T02:56:16.797Z,1008.22
2023-03-27T02:57:16.872Z,1008.28
2023-03-27T02:58:16.794Z,1008.32
2023-03-27T02:59:16.767Z,1008.32
2023-03-27T03:00:16.761Z,1008.33
2023-03-27T03:01:16.814Z,1008.36
2023-03-27T03:02:16.803Z,1008.40
2023-03-27T03:03:16.877Z,1008.35
2023-03-27T03:04:16.779Z,1008.29
2023-03-27T03:05:16.704Z,1008.24
2023-03-27T03:06:16.687Z,1008.36
2023-03-27T03:07:16.682Z,1008.34
2023-03-27T03:08:16.681Z,1008.39
2023-03-27T03:09:16.665Z,1008.40
2023-03-27T03:10:16.655Z,1008.38
2023-03-27T03:11:16.632Z,1008.43
2023-03-27T03:12:16.634Z,1008.49
2023-03-27T03:13:16.616Z,1008.47
2023-03-27T03:14:16.689Z,1008.55
2023-03-27T03:15:16.595Z,1008.54
2023-03-27T03:16:16.629Z,1008.63
2023-03-27T03:17:16.571Z,1008.59
2023-03-27T03:18:16.568Z,1008.57
2023-03-27T03:19:16.540Z,1008.59
2023-03-27T03:20:16.552Z,1008.68
2023-03-27T03:21:16.547Z,1008.62
2023-03-27T03:22:16.518Z,1008.69
2023-03-27T03:23:16.504Z,1008.66
2023-03-27T03:24:16.486Z,1008.73
2023-03-27T03:25:16.487Z,1008.76
2023-03-27T03:26:16.466Z,1008.75
2023-03-27T03:27:16.474Z,1008.70
2023-03-27T03:28:16.445Z,1008.75
2023-03-27T03:29:16.427Z,1008.78
2023-03-27T03:30:17.588Z,1008.77
2023-03-27T03:31:16.423Z,1008.76
2023-03-27T03:32:16.418Z,1008.72
2023-03-27T03:33:16.386Z,1008.74
2023-03-27T03:34:16.666Z,1008.72
2023-03-27T03:35:16.410Z,1008.80
2023-03-27T03:36:16.373Z,1008.80
2023-03-27T03:37:16.347Z,1008.78
2023-03-27T03:38:16.337Z,1008.89
2023-03-27T03:39:16.333Z,1008.89
2023-03-27T03:40:16.319Z,1008.89
2023-03-27T03:41:16.323Z,1008.90
2023-03-27T03:42:22.739Z,1008.85
2023-03-27T03:43:17.279Z,1008.89
2023-03-27T03:44:16.266Z,1008.85
2023-03-27T03:45:16.262Z,1008.87
2023-03-27T03:46:16.319Z,1008.90
2023-03-27T03:47:16.240Z,1008.91
2023-03-27T03:48:16.224Z,1008.88
2023-03-27T03:49:16.210Z,1008.86
2023-03-27T03:50:16.242Z,1008.86
2023-03-27T03:51:16.190Z,1008.90
2023-03-27T03:52:16.187Z,1008.92
2023-03-27T03:53:16.182Z,1008.98
2023-03-27T03:54:16.163Z,1008.92
2023-03-27T03:55:16.155Z,1008.98
2023-03-27T03:56:16.147Z,1008.97
2023-03-27T03:57:16.152Z,1009.06
2023-03-27T03:58:16.110Z,1008.93
2023-03-27T03:59:16.092Z,1009.01
2023-03-27T04:00:16.110Z,1008.98
2023-03-27T04:01:16.077Z,1009.04
2023-03-27T04:02:16.153Z,1009.07
2023-03-27T04:03:16.210Z,1009.04
2023-03-27T04:04:16.041Z,1009.06
2023-03-27T04:05:16.052Z,1009.08
2023-03-27T04:06:16.033Z,1009.07
2023-03-27T04:07:16.028Z,1009.05
2023-03-27T04:08:15.992Z,1009.05
2023-03-27T04:09:15.980Z,1009.09
2023-03-27T04:10:15.984Z,1009.05
2023-03-27T04:11:15.990Z,1009.13
2023-03-27T04:12:15.961Z,1009.11
2023-03-27T04:13:15.932Z,1009.15
2023-03-27T04:14:15.926Z,1009.20
2023-03-27T04:15:15.935Z,1009.13
2023-03-27T04:16:16.006Z,1009.17
2023-03-27T04:17:15.904Z,1009.22
2023-03-27T04:18:15.965Z,1009.13
2023-03-27T04:19:15.871Z,1009.13
2023-03-27T04:20:15.859Z,1009.15
2023-03-27T04:21:15.883Z,1009.14
2023-03-27T04:22:15.843Z,1009.20
2023-03-27T04:23:15.832Z,1009.21
2023-03-27T04:24:15.813Z,1009.24
2023-03-27T04:25:15.806Z,1009.23
2023-03-27T04:26:16.082Z,1009.26
2023-03-27T04:27:15.811Z,1009.20
2023-03-27T04:28:15.774Z,1009.22
2023-03-27T04:29:15.833Z,1009.31
2023-03-27T04:30:15.886Z,1009.29
2023-03-27T04:31:15.871Z,1009.36
2023-03-27T04:32:15.761Z,1009.41
2023-03-27T04:33:15.772Z,1009.45
2023-03-27T04:34:15.787Z,1009.50
2023-03-27T04:35:15.699Z,1009.42
2023-03-27T04:36:15.781Z,1009.44
2023-03-27T04:37:15.829Z,1009.55
2023-03-27T04:38:15.668Z,1009.49
2023-03-27T04:39:15.649Z,1009.56
2023-03-27T04:40:15.646Z,1009.56
2023-03-27T04:41:15.848Z,1009.55
2023-03-27T04:42:15.621Z,1009.55
2023-03-27T04:43:15.625Z,1009.53
2023-03-27T04:44:15.606Z,1009.52
2023-03-27T04:45:15.589Z,1009.52
2023-03-27T04:46:15.632Z,1009.58
2023-03-27T04:47:15.624Z,1009.60
2023-03-27T04:48:15.564Z,1009.56
2023-03-27T04:49:15.549Z,1009.60
2023-03-27T04:50:15.552Z,1009.62
2023-03-27T04:51:15.525Z,1009.55
2023-03-27T04:52:15.520Z,1009.64
2023-03-27T04:53:15.512Z,1009.63
2023-03-27T04:54:15.495Z,1009.57
2023-03-27T04:55:15.514Z,1009.56
2023-03-27T04:56:15.484Z,1009.59
2023-03-27T04:57:15.511Z,1009.62
2023-03-27T04:58:15.451Z,1009.67
2023-03-27T04:59:15.436Z,1009.64
2023-03-27T05:00:15.427Z,1009.61
2023-03-27T05:01:15.440Z,1009.58
2023-03-27T05:02:15.397Z,1009.61
2023-03-27T05:03:15.469Z,1009.61
2023-03-27T05:04:15.382Z,1009.66
2023-03-27T05:05:15.363Z,1009.67
2023-03-27T05:06:15.399Z,1009.70
2023-03-27T05:07:15.345Z,1009.80
2023-03-27T05:08:15.344Z,1009.76
2023-03-27T05:09:15.336Z,1009.82
2023-03-27T05:10:15.303Z,1009.87
2023-03-27T05:11:15.295Z,1009.97
2023-03-27T05:12:15.288Z,1010.04
2023-03-27T05:13:15.273Z,1010.02
2023-03-27T05:14:15.421Z,1010.05
2023-03-27T05:15:15.251Z,1010.04
2023-03-27T05:16:15.267Z,1010.05
2023-03-27T05:17:15.224Z,1009.98
2023-03-27T05:18:15.232Z,1010.11
2023-03-27T05:19:15.215Z,1010.09
2023-03-27T05:20:15.220Z,1010.09
2023-03-27T05:21:15.235Z,1010.11
2023-03-27T05:22:15.190Z,1010.10
2023-03-27T05:23:15.162Z,1010.06
2023-03-27T05:24:15.166Z,1010.11
2023-03-27T05:25:15.142Z,1010.19
2023-03-27T05:26:15.137Z,1010.14
2023-03-27T05:27:15.117Z,1010.11
2023-03-27T05:28:15.123Z,1010.14
2023-03-27T05:29:15.092Z,1010.18
2023-03-27T05:30:15.114Z,1010.08
2023-03-27T05:31:15.195Z,1010.07
2023-03-27T05:32:15.060Z,1010.08
2023-03-27T05:33:15.062Z,1010.17
2023-03-27T05:34:15.044Z,1010.15
2023-03-27T05:35:15.030Z,1010.20
2023-03-27T05:36:15.039Z,1010.15
2023-03-27T05:37:15.003Z,1010.22
2023-03-27T05:38:15.028Z,1010.30
2023-03-27T05:39:14.991Z,1010.27
2023-03-27T05:40:14.975Z,1010.24
2023-03-27T05:41:14.958Z,1010.26
2023-03-27T05:42:14.967Z,1010.32
2023-03-27T05:43:14.947Z,1010.44
2023-03-27T05:44:14.930Z,1010.43
2023-03-27T05:45:14.920Z,1010.37
2023-03-27T05:46:21.152Z,1010.40
2023-03-27T05:47:15.899Z,1010.33
2023-03-27T05:48:14.901Z,1010.35
2023-03-27T05:49:14.882Z,1010.44
2023-03-27T05:50:14.861Z,1010.37
2023-03-27T05:51:14.854Z,1010.37
2023-03-27T05:52:14.839Z,1010.38
2023-03-27T05:53:14.831Z,1010.42
2023-03-27T05:54:14.841Z,1010.36
2023-03-27T05:55:14.812Z,1010.41
2023-03-27T05:56:14.817Z,1010.39
2023-03-27T05:57:14.803Z,1010.48
2023-03-27T05:58:14.791Z,1010.45
2023-03-27T05:59:14.762Z,1010.46
2023-03-27T06:00:14.755Z,1010.45
2023-03-27T06:01:14.750Z,1010.42
2023-03-27T06:02:14.783Z,1010.43
2023-03-27T06:03:14.831Z,1010.49
2023-03-27T06:04:14.751Z,1010.46
2023-03-27T06:05:14.726Z,1010.57
2023-03-27T06:06:14.705Z,1010.57
2023-03-27T06:07:14.672Z,1010.50
2023-03-27T06:08:14.667Z,1010.57
2023-03-27T06:09:14.656Z,1010.59
2023-03-27T06:10:14.683Z,1010.56
2023-03-27T06:11:14.633Z,1010.63
2023-03-27T06:12:14.629Z,1010.58
2023-03-27T06:13:14.623Z,1010.54
2023-03-27T06:14:14.602Z,1010.68
2023-03-27T06:15:14.614Z,1010.60
2023-03-27T06:16:14.629Z,1010.58
2023-03-27T06:17:14.571Z,1010.59
2023-03-27T06:18:14.582Z,1010.65
2023-03-27T06:19:14.547Z,1010.65
2023-03-27T06:20:14.540Z,1010.71
2023-03-27T06:21:14.547Z,1010.80
2023-03-27T06:22:14.503Z,1010.72
2023-03-27T06:23:14.502Z,1010.77
2023-03-27T06:24:14.638Z,1010.78
2023-03-27T06:25:14.509Z,1010.75
2023-03-27T06:26:14.490Z,1010.78
2023-03-27T06:27:14.494Z,1010.81
2023-03-27T06:28:14.442Z,1010.78
2023-03-27T06:29:14.438Z,1010.69
2023-03-27T06:30:14.414Z,1010.70
2023-03-27T06:31:14.423Z,1010.69
2023-03-27T06:32:14.414Z,1010.70
2023-03-27T06:33:14.393Z,1010.75
2023-03-27T06:34:14.381Z,1010.71
2023-03-27T06:35:14.382Z,1010.68
2023-03-27T06:36:14.361Z,1010.73
2023-03-27T06:37:14.355Z,1010.79
2023-03-27T06:38:14.330Z,1010.81
2023-03-27T06:39:14.334Z,1010.86
2023-03-27T06:40:14.308Z,1010.79
2023-03-27T06:41:14.305Z,1010.86
2023-03-27T06:42:14.306Z,1010.81
2023-03-27T06:43:14.299Z,1010.84
2023-03-27T06:44:14.262Z,1010.87
2023-03-27T06:45:14.254Z,1010.89
2023-03-27T06:46:14.296Z,1010.89
2023-03-27T06:47:14.297Z,1010.92
2023-03-27T06:48:21.640Z,1010.90
2023-03-27T06:49:15.207Z,1010.99
2023-03-27T06:50:14.194Z,1011.14
2023-03-27T06:51:14.198Z,1011.15
2023-03-27T06:52:14.179Z,1011.14
2023-03-27T06:53:25.769Z,1010.93
2023-03-27T06:54:15.149Z,1011.01
2023-03-27T06:55:15.074Z,1011.00
2023-03-27T06:56:14.133Z,1011.03
2023-03-27T06:57:14.231Z,1011.13
2023-03-27T06:58:14.137Z,1011.19
2023-03-27T06:59:14.096Z,1011.34
2023-03-27T07:00:14.080Z,1011.07
2023-03-27T07:01:14.093Z,1011.35
2023-03-27T07:02:14.057Z,1011.34
2023-03-27T07:03:14.051Z,1011.32
2023-03-27T07:04:14.041Z,1011.32
2023-03-27T07:05:14.064Z,1011.33
2023-03-27T07:06:14.022Z,1011.38
2023-03-27T07:07:14.013Z,1011.20
2023-03-27T07:08:22.432Z,1011.35
2023-03-27T07:09:14.986Z,1011.32
2023-03-27T07:10:13.976Z,1011.27
2023-03-27T07:11:14.255Z,1011.33
2023-03-27T07:12:13.962Z,1011.38
2023-03-27T07:13:13.935Z,1011.44
2023-03-27T07:14:13.958Z,1011.43
2023-03-27T07:15:13.922Z,1011.46
2023-03-27T07:16:13.915Z,1011.48
2023-03-27T07:17:13.882Z,1011.62
2023-03-27T07:18:13.893Z,1011.51
2023-03-27T07:19:13.870Z,1011.49
2023-03-27T07:20:13.849Z,1011.60
2023-03-27T07:21:13.844Z,1011.53
2023-03-27T07:22:13.841Z,1011.59
2023-03-27T07:23:13.821Z,1011.55
2023-03-27T07:24:13.814Z,1011.53
2023-03-27T07:25:13.809Z,1011.58
2023-03-27T07:26:13.785Z,1011.54
2023-03-27T07:27:14.044Z,1011.48
2023-03-27T07:28:13.755Z,1011.55
2023-03-27T07:29:20.876Z,1011.56
2023-03-27T07:30:13.745Z,1011.41
2023-03-27T07:31:32.663Z,1011.48
2023-03-27T07:33:13.761Z,1011.52
2023-03-27T07:34:13.889Z,1011.53
2023-03-27T07:35:13.704Z,1011.53
2023-03-27T07:36:13.668Z,1011.54
2023-03-27T07:37:13.660Z,1011.56
2023-03-27T07:38:13.649Z,1011.60
2023-03-27T07:39:13.650Z,1011.69
2023-03-27T07:40:13.616Z,1011.77
2023-03-27T07:41:13.619Z,1011.78
2023-03-27T07:42:13.614Z,1011.78
2023-03-27T07:43:13.636Z,1011.79
2023-03-27T07:44:13.580Z,1011.85
2023-03-27T07:45:13.621Z,1011.77
2023-03-27T07:46:13.598Z,1011.69
2023-03-27T07:47:13.549Z,1011.67
2023-03-27T07:48:13.537Z,1011.63
2023-03-27T07:49:13.526Z,1011.54
2023-03-27T07:50:13.538Z,1011.60
2023-03-27T07:51:14.360Z,1011.70
2023-03-27T07:52:15.329Z,1011.68
2023-03-27T07:53:32.399Z,1011.75
2023-03-27T07:54:14.470Z,1011.75
2023-03-27T07:55:13.478Z,1011.66
2023-03-27T07:56:13.452Z,1011.64
2023-03-27T07:57:13.525Z,1011.70
2023-03-27T07:58:13.503Z,1011.74
2023-03-27T07:59:13.413Z,1011.73
2023-03-27T08:00:13.401Z,1011.68
2023-03-27T08:01:13.428Z,1011.76
2023-03-27T08:02:13.383Z,1011.78
2023-03-27T08:03:13.547Z,1011.76
2023-03-27T08:04:13.433Z,1011.83
2023-03-27T08:05:13.425Z,1011.89
2023-03-27T08:06:13.348Z,1011.82
2023-03-27T08:07:13.339Z,1011.88
2023-03-27T08:08:13.310Z,1011.82
2023-03-27T08:09:13.312Z,1011.80
2023-03-27T08:10:13.288Z,1011.82
2023-03-27T08:11:23.121Z,1011.85
2023-03-27T08:12:14.272Z,1011.82
2023-03-27T08:13:13.269Z,1011.88
2023-03-27T08:14:13.248Z,1011.90
2023-03-27T08:15:13.230Z,1011.87
2023-03-27T08:16:13.289Z,1011.87
2023-03-27T08:17:16.355Z,1011.92
2023-03-27T08:18:13.299Z,1011.93
2023-03-27T08:19:13.185Z,1011.89
2023-03-27T08:20:13.185Z,1011.93
2023-03-27T08:21:13.164Z,1011.94
2023-03-27T08:22:13.152Z,1011.94
2023-03-27T08:23:13.146Z,1012.00
2023-03-27T08:24:13.139Z,1011.93
2023-03-27T08:25:13.121Z,1012.08
2023-03-27T08:26:14.002Z,1012.06
2023-03-27T08:27:13.104Z,1011.99
2023-03-27T08:28:13.079Z,1012.04
2023-03-27T08:29:13.100Z,1011.98
2023-03-27T08:30:13.860Z,1012.04
2023-03-27T08:31:13.106Z,1011.97
2023-03-27T08:32:13.036Z,1011.95
2023-03-27T08:33:13.062Z,1012.00
2023-03-27T08:34:13.013Z,1011.99
2023-03-27T08:35:13.023Z,1011.93
2023-03-27T08:36:13.028Z,1011.97
2023-03-27T08:37:12.990Z,1012.03
2023-03-27T08:38:25.743Z,1011.97
2023-03-27T08:39:13.955Z,1012.02
2023-03-27T08:40:12.963Z,1011.97
2023-03-27T08:41:12.938Z,1011.97
2023-03-27T08:42:12.942Z,1011.91
2023-03-27T08:43:12.921Z,1012.01
2023-03-27T08:44:12.898Z,1011.98
2023-03-27T08:45:12.930Z,1011.97
2023-03-27T08:46:12.894Z,1012.04
2023-03-27T08:47:12.875Z,1012.09
2023-03-27T08:48:12.858Z,1012.01
2023-03-27T08:49:12.874Z,1012.09
2023-03-27T08:50:12.837Z,1012.16
2023-03-27T08:51:12.840Z,1012.14
2023-03-27T08:52:12.827Z,1012.10
2023-03-27T08:53:12.806Z,1012.03
2023-03-27T08:54:12.794Z,1012.14
2023-03-27T08:55:12.800Z,1012.18
2023-03-27T08:56:12.791Z,1012.08
2023-03-27T08:57:12.778Z,1012.15
2023-03-27T08:58:12.745Z,1012.19
2023-03-27T08:59:13.149Z,1012.16
2023-03-27T09:00:12.725Z,1012.20
2023-03-27T09:01:12.720Z,1012.31
2023-03-27T09:02:12.755Z,1012.19
2023-03-27T09:03:12.747Z,1012.19
2023-03-27T09:04:12.687Z,1012.20
2023-03-27T09:05:12.690Z,1012.18
2023-03-27T09:06:12.673Z,1012.21
2023-03-27T09:07:12.648Z,1012.31
2023-03-27T09:08:12.647Z,1012.27
2023-03-27T09:09:12.628Z,1012.33
2023-03-27T09:10:12.614Z,1012.32
2023-03-27T09:11:12.617Z,1012.26
2023-03-27T09:12:12.598Z,1012.32
2023-03-27T09:13:12.581Z,1012.35
2023-03-27T09:14:12.565Z,1012.30
2023-03-27T09:15:12.563Z,1012.38
2023-03-27T09:16:12.629Z,1012.30
2023-03-27T09:17:12.539Z,1012.40
2023-03-27T09:18:12.526Z,1012.37
2023-03-27T09:19:12.511Z,1012.36
2023-03-27T09:20:12.512Z,1012.35
2023-03-27T09:21:12.510Z,1012.39
2023-03-27T09:22:12.486Z,1012.41
2023-03-27T09:23:12.463Z,1012.39
2023-03-27T09:24:12.450Z,1012.35
2023-03-27T09:25:12.485Z,1012.49
2023-03-27T09:26:12.444Z,1012.51
2023-03-27T09:27:12.426Z,1012.49
2023-03-27T09:28:12.415Z,1012.46
2023-03-27T09:29:12.397Z,1012.40
2023-03-27T09:30:13.409Z,1012.36
2023-03-27T09:31:12.405Z,1012.39
2023-03-27T09:32:12.360Z,1012.34
2023-03-27T09:33:12.428Z,1012.39
2023-03-27T09:34:12.351Z,1012.44
2023-03-27T09:35:12.335Z,1012.49
2023-03-27T09:36:12.340Z,1012.53
2023-03-27T09:37:12.326Z,1012.48
2023-03-27T09:38:12.305Z,1012.62
2023-03-27T09:39:12.286Z,1012.59
2023-03-27T09:40:12.283Z,1012.62
2023-03-27T09:41:12.269Z,1012.51
2023-03-27T09:42:12.247Z,1012.52
2023-03-27T09:43:12.253Z,1012.46
2023-03-27T09:44:12.230Z,1012.59
2023-03-27T09:45:12.231Z,1012.54
2023-03-27T09:46:12.212Z,1012.59
2023-03-27T09:47:12.210Z,1012.51
2023-03-27T09:48:12.203Z,1012.52
2023-03-27T09:49:12.177Z,1012.46
2023-03-27T09:50:12.176Z,1012.57
2023-03-27T09:51:12.162Z,1012.46
2023-03-27T09:52:12.137Z,1012.44
2023-03-27T09:53:12.161Z,1012.59
2023-03-27T09:54:12.142Z,1012.48
2023-03-27T09:55:12.110Z,1012.47
2023-03-27T09:56:12.092Z,1012.56
2023-03-27T09:57:12.106Z,1012.51
2023-03-27T09:58:12.081Z,1012.50
2023-03-27T09:59:12.084Z,1012.54
2023-03-27T10:00:12.053Z,1012.46
2023-03-27T10:01:12.076Z,1012.58
2023-03-27T10:02:12.029Z,1012.54
2023-03-27T10:03:12.148Z,1012.49
2023-03-27T10:04:12.093Z,1012.48
2023-03-27T10:05:12.063Z,1012.42
2023-03-27T10:06:12.003Z,1012.49
2023-03-27T10:07:11.966Z,1012.46
2023-03-27T10:08:11.974Z,1012.58
2023-03-27T10:09:11.966Z,1012.53
2023-03-27T10:10:11.987Z,1012.58
2023-03-27T10:11:11.948Z,1012.60
2023-03-27T10:12:11.948Z,1012.51
2023-03-27T10:13:11.917Z,1012.52
2023-03-27T10:14:11.902Z,1012.58
2023-03-27T10:15:11.890Z,1012.62
2023-03-27T10:16:11.952Z,1012.53
2023-03-27T10:17:11.866Z,1012.52
2023-03-27T10:18:11.957Z,1012.65
2023-03-27T10:19:11.859Z,1012.58
2023-03-27T10:20:11.830Z,1012.63
2023-03-27T10:21:11.845Z,1012.63
2023-03-27T10:22:14.318Z,1012.66
2023-03-27T10:23:11.818Z,1012.67
2023-03-27T10:24:11.788Z,1012.75
2023-03-27T10:25:11.786Z,1012.69
2023-03-27T10:26:11.763Z,1012.67
2023-03-27T10:27:11.766Z,1012.64
2023-03-27T10:28:11.739Z,1012.69
2023-03-27T10:29:11.726Z,1012.64
2023-03-27T10:30:11.728Z,1012.68
2023-03-27T10:31:11.731Z,1012.68
2023-03-27T10:32:11.724Z,1012.67
2023-03-27T10:33:11.742Z,1012.66
2023-03-27T10:34:11.674Z,1012.70
2023-03-27T10:35:11.666Z,1012.73
2023-03-27T10:36:11.672Z,1012.72
2023-03-27T10:37:11.635Z,1012.72
2023-03-27T10:38:11.636Z,1012.77
2023-03-27T10:39:11.681Z,1012.72
2023-03-27T10:40:11.608Z,1012.70
2023-03-27T10:41:11.606Z,1012.79
2023-03-27T10:42:11.605Z,1012.70
2023-03-27T10:43:12.631Z,1012.74
2023-03-27T10:44:11.558Z,1012.74
2023-03-27T10:45:11.548Z,1012.66
2023-03-27T10:46:11.633Z,1012.62
2023-03-27T10:47:11.521Z,1012.71
2023-03-27T10:48:11.575Z,1012.75
2023-03-27T10:49:11.506Z,1012.83
2023-03-27T10:50:11.493Z,1012.76
2023-03-27T10:51:11.472Z,1012.76
2023-03-27T10:52:11.491Z,1012.71
2023-03-27T10:53:11.740Z,1012.82
2023-03-27T10:54:11.470Z,1012.79
2023-03-27T10:55:11.434Z,1012.76
2023-03-27T10:56:11.431Z,1012.74
2023-03-27T10:57:11.492Z,1012.92
2023-03-27T10:58:11.398Z,1012.88
2023-03-27T10:59:11.413Z,1012.90
2023-03-27T11:00:11.372Z,1013.08
2023-03-27T11:01:11.425Z,1013.20
2023-03-27T11:02:11.355Z,1013.33
2023-03-27T11:03:11.379Z,1013.46
2023-03-27T11:04:11.353Z,1013.53
2023-03-27T11:05:11.339Z,1013.56
2023-03-27T11:06:11.311Z,1013.54
2023-03-27T11:07:11.297Z,1013.61
2023-03-27T11:08:11.281Z,1013.71
2023-03-27T11:09:11.265Z,1013.66
2023-03-27T11:10:11.271Z,1013.69
2023-03-27T11:11:11.257Z,1013.80
2023-03-27T11:12:11.250Z,1013.65
2023-03-27T11:13:11.241Z,1013.67
2023-03-27T11:14:11.234Z,1013.76
2023-03-27T11:15:11.215Z,1013.77
2023-03-27T11:16:11.269Z,1013.86
2023-03-27T11:17:11.182Z,1013.77
2023-03-27T11:18:11.208Z,1013.69
2023-03-27T11:19:11.162Z,1013.66
2023-03-27T11:20:11.155Z,1013.68
2023-03-27T11:21:11.169Z,1013.73
2023-03-27T11:22:11.133Z,1013.65
2023-03-27T11:23:11.115Z,1013.68
2023-03-27T11:24:11.100Z,1013.70
2023-03-27T11:25:11.093Z,1013.74
2023-03-27T11:26:11.106Z,1013.74
2023-03-27T11:27:13.312Z,1013.66
2023-03-27T11:28:11.057Z,1013.66
2023-03-27T11:29:11.069Z,1013.63
2023-03-27T11:30:11.030Z,1013.75
2023-03-27T11:31:13.133Z,1013.72
2023-03-27T11:32:11.014Z,1013.68
2023-03-27T11:33:11.010Z,1013.58
2023-03-27T11:34:10.984Z,1013.63
2023-03-27T11:35:10.977Z,1013.65
2023-03-27T11:36:10.990Z,1013.66
2023-03-27T11:37:10.959Z,1013.61
2023-03-27T11:38:10.951Z,1013.58
2023-03-27T11:39:10.935Z,1013.59
2023-03-27T11:40:10.917Z,1013.55
2023-03-27T11:41:11.942Z,1013.56
2023-03-27T11:42:10.918Z,1013.61
2023-03-27T11:43:10.896Z,1013.57
2023-03-27T11:44:10.876Z,1013.58
2023-03-27T11:45:10.880Z,1013.62
2023-03-27T11:46:10.930Z,1013.59
2023-03-27T11:47:10.862Z,1013.62
2023-03-27T11:48:11.311Z,1013.62
2023-03-27T11:49:10.832Z,1013.65
2023-03-27T11:50:10.847Z,1013.54
2023-03-27T11:51:10.792Z,1013.65
2023-03-27T11:52:10.787Z,1013.63
2023-03-27T11:53:10.801Z,1013.72
2023-03-27T11:54:10.758Z,1013.62
2023-03-27T11:55:10.749Z,1013.66
2023-03-27T11:56:10.753Z,1013.66
2023-03-27T11:57:10.769Z,1013.63
2023-03-27T11:58:10.741Z,1013.63
2023-03-27T11:59:10.772Z,1013.58
2023-03-27T12:00:10.745Z,1013.56
2023-03-27T12:01:10.708Z,1013.57
2023-03-27T12:02:10.782Z,1013.59
2023-03-27T12:03:10.727Z,1013.55
2023-03-27T12:04:10.687Z,1013.54
2023-03-27T12:05:10.694Z,1013.54
2023-03-27T12:06:10.634Z,1013.65